createdAt,value
2023-03-02T00:00:45.232Z,8.60
2023-03-02T00:03:13.389Z,8.45
2023-03-02T00:05:40.367Z,8.43
2023-03-02T00:08:09.213Z,7.20
2023-03-02T00:10:36.990Z,7.28
2023-03-02T00:13:03.436Z,7.47
2023-03-02T00:15:29.840Z,7.57
2023-03-02T00:17:56.154Z,8.60
2023-03-02T00:20:22.449Z,7.65
2023-03-02T00:22:48.765Z,7.75
2023-03-02T00:25:16.287Z,7.03
2023-03-02T00:27:42.610Z,7.35
2023-03-02T00:30:09.984Z,7.28
2023-03-02T00:32:36.350Z,7.43
2023-03-02T00:35:02.751Z,7.60
2023-03-02T00:37:29.057Z,7.65
2023-03-02T00:39:55.365Z,6.60
2023-03-02T00:42:21.937Z,7.05
2023-03-02T00:44:48.275Z,6.68
2023-03-02T00:47:14.676Z,6.90
2023-03-02T00:49:40.942Z,7.45
2023-03-02T00:52:07.247Z,6.93
2023-03-02T00:54:33.526Z,6.13
2023-03-02T00:56:59.839Z,6.90
2023-03-02T00:59:26.225Z,7.45
2023-03-02T01:01:53.937Z,6.43
2023-03-02T01:06:46.491Z,6.10
2023-03-02T01:09:12.801Z,7.03
2023-03-02T01:11:39.095Z,6.15
2023-03-02T01:14:05.450Z,6.40
2023-03-02T01:16:33.900Z,6.43
2023-03-02T01:19:00.470Z,7.60
2023-03-02T01:21:26.804Z,6.65
2023-03-02T01:23:53.124Z,6.40
2023-03-02T01:26:19.448Z,6.70
2023-03-02T01:28:45.738Z,6.22
2023-03-02T01:31:12.104Z,6.53
2023-03-02T01:33:38.521Z,6.50
2023-03-02T01:36:05.240Z,6.60
2023-03-02T01:38:31.647Z,6.38
2023-03-02T01:40:58.109Z,6.22
2023-03-02T01:43:24.449Z,5.90
2023-03-02T01:45:57.847Z,6.10
2023-03-02T01:48:31.325Z,6.57
2023-03-02T01:50:58.452Z,6.45
2023-03-02T01:53:29.185Z,6.15
2023-03-02T01:55:57.440Z,6.05
2023-03-02T01:58:24.290Z,6.22
2023-03-02T02:00:53.320Z,5.88
2023-03-02T02:03:26.208Z,6.78
2023-03-02T02:06:20.495Z,5.97
2023-03-02T02:08:48.336Z,6.85
2023-03-02T02:11:14.853Z,6.57
2023-03-02T02:13:42.149Z,5.90
2023-03-02T02:16:08.713Z,6.75
2023-03-02T02:18:39.694Z,7.20
2023-03-02T02:21:07.665Z,7.22
2023-03-02T02:23:38.844Z,6.80
2023-03-02T02:26:13.478Z,6.50
2023-03-02T02:28:51.996Z,6.90
2023-03-02T02:31:48.184Z,7.32
2023-03-02T02:34:21.850Z,7.30
2023-03-02T02:36:52.779Z,6.32
2023-03-02T02:39:25.556Z,6.75
2023-03-02T02:41:56.469Z,8.05
2023-03-02T02:44:22.833Z,8.05
2023-03-02T02:46:49.246Z,7.80
2023-03-02T02:49:23.343Z,7.80
2023-03-02T02:51:49.626Z,8.25
2023-03-02T02:54:18.873Z,7.55
2023-03-02T02:56:46.806Z,8.55
2023-03-02T02:59:35.193Z,9.20
2023-03-02T03:02:02.001Z,7.20
2023-03-02T03:04:31.577Z,9.07
2023-03-02T03:07:00.897Z,7.63
2023-03-02T03:09:28.054Z,8.00
2023-03-02T03:12:17.989Z,8.40
2023-03-02T03:14:44.842Z,7.97
2023-03-02T03:17:11.307Z,7.43
2023-03-02T03:19:47.891Z,8.20
2023-03-02T03:22:16.034Z,8.85
2023-03-02T03:24:44.196Z,9.15
2023-03-02T03:27:13.607Z,7.60
2023-03-02T03:29:42.777Z,8.75
2023-03-02T03:32:09.502Z,8.32
2023-03-02T03:34:36.021Z,8.05
2023-03-02T03:37:02.327Z,8.15
2023-03-02T03:39:30.404Z,8.52
2023-03-02T03:41:56.808Z,8.75
2023-03-02T03:44:23.464Z,7.90
2023-03-02T03:46:49.961Z,7.50
2023-03-02T03:49:16.938Z,7.70
2023-03-02T03:51:43.608Z,9.25
2023-03-02T03:54:10.789Z,8.35
2023-03-02T03:56:41.210Z,8.02
2023-03-02T03:59:09.967Z,7.85
2023-03-02T04:01:39.424Z,8.75
2023-03-02T04:04:09.234Z,9.45
2023-03-02T04:06:36.073Z,9.25
2023-03-02T04:09:03.648Z,9.23
2023-03-02T04:11:40.881Z,8.60
2023-03-02T04:14:08.465Z,10.32
2023-03-02T04:16:35.939Z,9.10
2023-03-02T04:19:03.420Z,9.65
2023-03-02T04:21:29.860Z,9.88
2023-03-02T04:23:56.279Z,10.32
2023-03-02T04:26:22.565Z,10.13
2023-03-02T04:28:48.880Z,9.88
2023-03-02T04:31:15.219Z,10.57
2023-03-02T04:33:41.547Z,10.77
2023-03-02T04:36:08.201Z,11.38
2023-03-02T04:38:34.549Z,9.70
2023-03-02T04:41:00.923Z,9.40
2023-03-02T04:43:27.276Z,9.20
2023-03-02T04:45:53.872Z,9.77
2023-03-02T04:48:21.183Z,9.77
2023-03-02T04:50:47.545Z,10.20
2023-03-02T04:53:14.203Z,10.93
2023-03-02T04:55:40.776Z,9.60
2023-03-02T04:58:07.240Z,9.65
2023-03-02T05:00:34.309Z,9.13
2023-03-02T05:03:04.496Z,9.70
2023-03-02T05:05:30.892Z,9.88
2023-03-02T05:07:57.594Z,10.00
2023-03-02T05:10:24.770Z,9.95
2023-03-02T05:12:51.394Z,10.15
2023-03-02T05:15:17.706Z,10.95
2023-03-02T05:17:44.043Z,11.27
2023-03-02T05:20:11.855Z,13.00
2023-03-02T05:22:38.164Z,13.15
2023-03-02T05:25:05.393Z,13.75
2023-03-02T05:27:31.727Z,15.65
2023-03-02T05:29:58.083Z,15.77
2023-03-02T05:32:24.419Z,15.85
2023-03-02T05:34:50.795Z,16.42
2023-03-02T05:37:17.064Z,14.55
2023-03-02T05:39:43.360Z,17.63
2023-03-02T05:42:10.210Z,15.25
2023-03-02T05:44:36.501Z,17.48
2023-03-02T05:47:02.886Z,16.70
2023-03-02T05:49:29.243Z,18.10
2023-03-02T05:51:55.527Z,17.10
2023-03-02T05:54:21.815Z,17.13
2023-03-02T05:56:50.223Z,16.95
2023-03-02T05:59:16.652Z,16.63
2023-03-02T06:01:42.977Z,16.88
2023-03-02T06:04:09.290Z,17.90
2023-03-02T06:06:35.969Z,16.05
2023-03-02T06:09:02.580Z,16.75
2023-03-02T06:11:28.886Z,16.83
2023-03-02T06:13:55.202Z,17.33
2023-03-02T06:16:22.778Z,17.52
2023-03-02T06:21:15.510Z,17.27
2023-03-02T06:23:41.829Z,16.83
2023-03-02T06:26:12.283Z,18.60
2023-03-02T06:28:51.375Z,18.38
2023-03-02T06:31:18.206Z,16.17
2023-03-02T06:33:44.571Z,19.02
2023-03-02T06:36:10.911Z,19.38
2023-03-02T06:38:37.256Z,20.35
2023-03-02T06:41:03.649Z,19.27
2023-03-02T06:43:29.921Z,20.05
2023-03-02T06:45:56.292Z,20.60
2023-03-02T06:48:22.594Z,21.52
2023-03-02T06:50:48.905Z,20.92
2023-03-02T06:53:15.219Z,20.00
2023-03-02T06:55:41.483Z,20.02
2023-03-02T06:58:07.798Z,19.40
2023-03-02T07:00:34.083Z,18.77
2023-03-02T07:03:00.386Z,17.38
2023-03-02T07:05:26.720Z,18.63
2023-03-02T07:07:53.013Z,17.90
2023-03-02T07:10:19.469Z,17.27
2023-03-02T07:12:45.794Z,19.50
2023-03-02T07:15:12.667Z,17.52
2023-03-02T07:17:39.632Z,15.93
2023-03-02T07:20:06.370Z,16.55
2023-03-02T07:22:33.230Z,14.75
2023-03-02T07:24:59.830Z,15.77
2023-03-02T07:27:26.211Z,15.05
2023-03-02T07:29:52.525Z,16.02
2023-03-02T07:32:18.906Z,15.95
2023-03-02T07:34:45.239Z,14.48
2023-03-02T07:37:11.541Z,17.50
2023-03-02T07:39:37.850Z,17.63
2023-03-02T07:42:04.267Z,17.30
2023-03-02T07:44:30.942Z,17.98
2023-03-02T07:46:57.375Z,16.38
2023-03-02T07:49:24.104Z,18.02
2023-03-02T07:51:50.414Z,17.92
2023-03-02T07:54:16.901Z,17.75
2023-03-02T07:56:43.433Z,18.58
2023-03-02T07:59:11.976Z,16.27
2023-03-02T08:01:38.461Z,16.55
2023-03-02T08:04:04.944Z,17.23
2023-03-02T08:06:31.384Z,16.38
2023-03-02T08:08:57.908Z,18.92
2023-03-02T08:11:24.243Z,17.80
2023-03-02T08:13:50.626Z,18.25
2023-03-02T08:16:17.101Z,19.23
2023-03-02T08:18:43.719Z,16.58
2023-03-02T08:21:15.525Z,19.73
2023-03-02T08:23:42.232Z,16.88
2023-03-02T08:26:09.656Z,16.77
2023-03-02T08:28:36.796Z,17.17
2023-03-02T08:31:03.924Z,17.38
2023-03-02T08:33:30.536Z,16.90
2023-03-02T08:36:08.973Z,17.38
2023-03-02T08:38:36.082Z,16.35
2023-03-02T08:41:07.281Z,18.45
2023-03-02T08:43:34.396Z,14.30
2023-03-02T08:46:00.821Z,17.80
2023-03-02T08:48:28.000Z,15.65
2023-03-02T08:51:14.379Z,17.52
2023-03-02T08:53:43.296Z,13.57
2023-03-02T08:56:16.645Z,15.45
2023-03-02T08:58:42.977Z,14.48
2023-03-02T09:01:17.794Z,15.27
2023-03-02T09:03:44.426Z,15.85
2023-03-02T09:06:10.968Z,14.27
2023-03-02T09:08:37.832Z,14.38
2023-03-02T09:11:04.410Z,14.98
2023-03-02T09:13:31.255Z,13.18
2023-03-02T09:15:57.612Z,13.13
2023-03-02T09:18:23.969Z,12.57
2023-03-02T09:20:51.987Z,12.23
2023-03-02T09:23:19.339Z,14.20
2023-03-02T09:25:46.436Z,12.52
2023-03-02T09:28:12.836Z,12.07
2023-03-02T09:30:39.167Z,11.57
2023-03-02T09:33:05.540Z,11.43
2023-03-02T09:35:32.152Z,11.40
2023-03-02T09:37:58.584Z,11.73
2023-03-02T09:40:27.733Z,10.07
2023-03-02T09:43:24.060Z,10.18
2023-03-02T09:45:58.289Z,9.95
2023-03-02T09:48:59.619Z,10.23
2023-03-02T09:52:07.067Z,9.32
2023-03-02T09:54:34.959Z,12.02
2023-03-02T09:57:01.852Z,11.73
2023-03-02T09:59:33.089Z,10.90
2023-03-02T10:02:24.256Z,10.15
2023-03-02T10:04:54.040Z,9.80
2023-03-02T10:07:24.261Z,10.27
2023-03-02T10:09:50.648Z,10.65
2023-03-02T10:12:35.671Z,9.45
2023-03-02T10:15:14.881Z,9.00
2023-03-02T10:18:03.819Z,9.88
2023-03-02T10:20:36.433Z,8.65
2023-03-02T10:23:22.985Z,8.40
2023-03-02T10:26:09.771Z,9.70
2023-03-02T10:28:48.316Z,10.18
2023-03-02T10:31:29.480Z,8.95
2023-03-02T10:33:56.659Z,7.88
2023-03-02T10:36:31.082Z,8.73
2023-03-02T10:38:58.344Z,8.90
2023-03-02T10:41:34.084Z,9.52
2023-03-02T10:44:15.274Z,8.50
2023-03-02T10:46:43.843Z,9.73
2023-03-02T10:49:27.195Z,8.60
2023-03-02T10:52:04.765Z,8.02
2023-03-02T10:54:33.571Z,8.75
2023-03-02T10:57:02.786Z,10.85
2023-03-02T10:59:42.590Z,8.25
2023-03-02T11:04:41.925Z,7.53
2023-03-02T11:07:17.823Z,7.78
2023-03-02T11:10:21.572Z,7.90
2023-03-02T11:12:51.017Z,7.93
2023-03-02T11:15:23.089Z,8.73
2023-03-02T11:18:20.681Z,9.63
2023-03-02T11:20:52.610Z,7.90
2023-03-02T11:23:36.208Z,8.25
2023-03-02T11:26:20.558Z,7.00
2023-03-02T11:29:14.355Z,7.47
2023-03-02T11:31:43.462Z,7.50
2023-03-02T11:34:20.577Z,8.18
2023-03-02T11:36:58.767Z,8.00
2023-03-02T11:39:50.048Z,7.78
2023-03-02T11:42:33.320Z,8.10
2023-03-02T11:45:16.501Z,7.57
2023-03-02T11:48:02.027Z,8.02
2023-03-02T11:50:31.392Z,7.50
2023-03-02T11:53:01.278Z,8.02
2023-03-02T11:55:29.195Z,7.80
2023-03-02T12:00:36.815Z,7.28
2023-03-02T12:03:07.311Z,7.57
2023-03-02T12:05:37.393Z,7.28
2023-03-02T12:08:26.717Z,7.43
2023-03-02T12:11:16.015Z,8.95
2023-03-02T12:13:44.117Z,8.55
2023-03-02T12:16:36.323Z,7.65
2023-03-02T12:19:13.445Z,6.53
2023-03-02T12:21:44.197Z,7.85
2023-03-02T12:24:41.279Z,9.20
2023-03-02T12:27:10.293Z,8.25
2023-03-02T12:29:41.338Z,9.20
2023-03-02T12:32:22.935Z,9.90
2023-03-02T12:35:07.414Z,9.18
2023-03-02T12:37:47.647Z,10.18
2023-03-02T12:40:38.567Z,10.68
2023-03-02T12:43:19.256Z,11.50
2023-03-02T12:45:48.613Z,11.05
2023-03-02T12:48:27.943Z,12.20
2023-03-02T12:51:00.529Z,10.88
2023-03-02T12:53:28.090Z,10.55
2023-03-02T12:58:28.266Z,12.57
2023-03-02T13:00:57.847Z,15.25
2023-03-02T13:03:26.024Z,14.75
2023-03-02T13:06:01.400Z,12.98
2023-03-02T13:08:29.371Z,15.27
2023-03-02T13:11:01.232Z,16.13
2023-03-02T13:13:27.571Z,16.02
2023-03-02T13:15:58.968Z,16.52
2023-03-02T13:18:29.409Z,16.73
2023-03-02T13:20:55.850Z,17.25
2023-03-02T13:23:22.284Z,16.55
2023-03-02T13:25:54.794Z,18.17
2023-03-02T13:28:27.169Z,18.10
2023-03-02T13:31:04.923Z,16.63
2023-03-02T13:33:33.740Z,17.00
2023-03-02T13:36:00.376Z,18.63
2023-03-02T13:38:49.339Z,17.67
2023-03-02T13:41:23.868Z,16.58
2023-03-02T13:43:50.259Z,17.02
2023-03-02T13:46:16.497Z,15.73
2023-03-02T13:49:09.207Z,17.00
2023-03-02T13:51:39.982Z,16.95
2023-03-02T13:54:16.611Z,17.90
2023-03-02T13:56:43.958Z,17.13
2023-03-02T13:59:15.047Z,17.38
2023-03-02T14:01:41.824Z,16.77
2023-03-02T14:04:12.148Z,16.75
2023-03-02T14:06:38.484Z,16.30
2023-03-02T14:09:05.203Z,16.88
2023-03-02T14:11:41.071Z,15.38
2023-03-02T14:14:12.229Z,16.33
2023-03-02T14:16:38.531Z,15.55
2023-03-02T14:19:04.823Z,15.68
2023-03-02T14:21:31.591Z,17.85
2023-03-02T14:23:58.343Z,15.77
2023-03-02T14:26:35.435Z,16.63
2023-03-02T14:29:19.555Z,15.90
2023-03-02T14:31:45.904Z,16.02
2023-03-02T14:34:13.680Z,16.75
2023-03-02T14:36:41.379Z,16.17
2023-03-02T14:39:20.128Z,17.13
2023-03-02T14:41:53.282Z,17.83
2023-03-02T14:44:20.526Z,16.98
2023-03-02T14:46:46.844Z,17.75
2023-03-02T14:49:13.169Z,17.23
2023-03-02T14:51:41.440Z,15.25
2023-03-02T14:54:14.221Z,16.42
2023-03-02T14:56:41.379Z,15.93
2023-03-02T14:59:13.104Z,16.50
2023-03-02T15:01:40.261Z,16.80
2023-03-02T15:04:06.612Z,18.13
2023-03-02T15:06:37.441Z,16.48
2023-03-02T15:09:03.841Z,15.95
2023-03-02T15:11:30.968Z,16.63
2023-03-02T15:16:23.984Z,18.02
2023-03-02T15:18:52.399Z,16.35
2023-03-02T15:21:24.148Z,18.15
2023-03-02T15:23:51.045Z,16.80
2023-03-02T15:26:17.651Z,16.67
2023-03-02T15:28:43.949Z,16.63
2023-03-02T15:31:13.166Z,17.38
2023-03-02T15:33:40.172Z,17.33
2023-03-02T15:36:07.392Z,17.15
2023-03-02T15:38:35.147Z,19.67
2023-03-02T15:41:06.870Z,20.30
2023-03-02T15:43:33.704Z,20.20
2023-03-02T15:46:00.037Z,18.73
2023-03-02T15:48:27.341Z,19.70
2023-03-02T15:51:01.219Z,19.70
2023-03-02T15:53:29.085Z,19.48
2023-03-02T15:55:55.916Z,18.85
2023-03-02T15:58:22.828Z,18.30
2023-03-02T16:00:49.872Z,19.33
2023-03-02T16:03:17.028Z,18.85
2023-03-02T16:05:43.380Z,17.10
2023-03-02T16:08:09.670Z,19.92
2023-03-02T16:10:36.072Z,18.02
2023-03-02T16:13:04.182Z,20.60
2023-03-02T16:15:31.363Z,20.40
2023-03-02T16:17:57.658Z,18.55
2023-03-02T16:20:23.965Z,20.75
2023-03-02T16:22:50.247Z,19.75
2023-03-02T16:25:16.562Z,18.67
2023-03-02T16:27:42.852Z,18.95
2023-03-02T16:30:09.856Z,17.73
2023-03-02T16:32:36.180Z,17.92
2023-03-02T16:35:02.498Z,17.83
2023-03-02T16:37:28.874Z,16.17
2023-03-02T16:39:55.266Z,18.10
2023-03-02T16:42:21.550Z,17.10
2023-03-02T16:44:49.789Z,18.80
2023-03-02T16:47:16.111Z,18.05
2023-03-02T16:49:42.432Z,18.83
2023-03-02T16:52:08.757Z,17.90
2023-03-02T16:54:35.376Z,16.95
2023-03-02T16:57:01.676Z,16.17
2023-03-02T16:59:27.968Z,16.15
2023-03-02T17:01:54.284Z,17.75
2023-03-02T17:04:20.625Z,19.63
2023-03-02T17:06:59.732Z,18.10
2023-03-02T17:09:27.029Z,17.67
2023-03-02T17:11:53.331Z,17.10
2023-03-02T17:14:19.621Z,18.95
2023-03-02T17:16:45.955Z,20.92
2023-03-02T17:19:12.269Z,19.83
2023-03-02T17:21:38.821Z,19.77
2023-03-02T17:24:05.254Z,22.23
2023-03-02T17:26:31.554Z,19.23
2023-03-02T17:28:57.840Z,18.55
2023-03-02T17:31:24.232Z,19.40
2023-03-02T17:33:50.592Z,21.25
2023-03-02T17:36:16.952Z,21.08
2023-03-02T17:38:43.294Z,20.23
2023-03-02T17:41:11.359Z,17.98
2023-03-02T17:43:39.577Z,18.60
2023-03-02T17:46:12.084Z,21.45
2023-03-02T17:48:38.674Z,19.42
2023-03-02T17:51:05.317Z,18.55
2023-03-02T17:53:31.678Z,20.55
2023-03-02T17:55:57.979Z,20.08
2023-03-02T17:58:26.717Z,20.02
2023-03-02T18:00:54.832Z,19.42
2023-03-02T18:03:21.264Z,21.33
2023-03-02T18:05:47.626Z,24.33
2023-03-02T18:08:13.971Z,22.00
2023-03-02T18:10:40.281Z,25.67
2023-03-02T18:13:06.604Z,20.85
2023-03-02T18:15:33.241Z,17.10
2023-03-02T18:17:59.655Z,19.52
2023-03-02T18:20:26.039Z,21.02
2023-03-02T18:22:52.504Z,21.10
2023-03-02T18:25:18.796Z,18.27
2023-03-02T18:27:45.213Z,19.95
2023-03-02T18:30:12.887Z,21.63
2023-03-02T18:32:39.222Z,19.48
2023-03-02T18:35:06.000Z,19.15
2023-03-02T18:37:32.334Z,17.83
2023-03-02T18:39:58.633Z,17.73
2023-03-02T18:42:24.931Z,16.55
2023-03-02T18:44:51.239Z,14.32
2023-03-02T18:47:17.707Z,15.70
2023-03-02T18:49:46.006Z,16.17
2023-03-02T18:52:12.304Z,15.13
2023-03-02T18:54:39.246Z,14.82
2023-03-02T18:57:05.712Z,15.82
2023-03-02T18:59:32.037Z,14.48
2023-03-02T19:01:58.404Z,13.68
2023-03-02T19:04:24.868Z,14.65
2023-03-02T19:06:51.182Z,15.38
2023-03-02T19:09:17.495Z,14.85
2023-03-02T19:11:43.928Z,13.40
2023-03-02T19:14:10.200Z,15.48
2023-03-02T19:16:36.576Z,13.85
2023-03-02T19:19:02.933Z,15.02
2023-03-02T19:21:29.311Z,14.30
2023-03-02T19:23:55.665Z,15.75
2023-03-02T19:26:21.985Z,14.20
2023-03-02T19:28:48.457Z,14.80
2023-03-02T19:31:15.638Z,13.57
2023-03-02T19:33:42.588Z,13.27
2023-03-02T19:36:09.372Z,14.13
2023-03-02T19:38:35.732Z,13.88
2023-03-02T19:41:02.134Z,13.55
2023-03-02T19:43:28.714Z,13.50
2023-03-02T19:45:55.405Z,17.38
2023-03-02T19:48:21.864Z,11.63
2023-03-02T19:50:48.233Z,10.68
2023-03-02T19:53:14.842Z,11.70
2023-03-02T19:55:41.159Z,12.25
2023-03-02T19:58:07.472Z,10.60
2023-03-02T20:00:33.972Z,14.90
2023-03-02T20:03:00.371Z,14.98
2023-03-02T20:05:27.333Z,12.40
2023-03-02T20:07:54.081Z,15.70
2023-03-02T20:10:30.963Z,13.63
2023-03-02T20:12:57.688Z,12.75
2023-03-02T20:15:23.976Z,12.90
2023-03-02T20:17:50.286Z,16.02
2023-03-02T20:20:16.654Z,13.70
2023-03-02T20:22:42.961Z,14.40
2023-03-02T20:25:09.439Z,13.65
2023-03-02T20:27:35.735Z,13.63
2023-03-02T20:30:02.226Z,13.05
2023-03-02T20:32:28.667Z,13.95
2023-03-02T20:34:55.013Z,12.52
2023-03-02T20:37:21.303Z,14.50
2023-03-02T20:39:47.612Z,14.75
2023-03-02T20:42:13.910Z,13.10
2023-03-02T20:44:40.518Z,11.35
2023-03-02T20:47:09.731Z,11.38
2023-03-02T20:49:37.465Z,11.68
2023-03-02T20:52:03.862Z,11.57
2023-03-02T20:54:34.083Z,10.90
2023-03-02T20:57:00.479Z,10.43
2023-03-02T20:59:27.564Z,10.05
2023-03-02T21:01:53.939Z,9.45
2023-03-02T21:04:20.964Z,8.98
2023-03-02T21:06:47.300Z,9.40
2023-03-02T21:09:14.059Z,8.85
2023-03-02T21:11:40.921Z,7.80
2023-03-02T21:14:07.396Z,10.65
2023-03-02T21:16:38.087Z,10.80
2023-03-02T21:19:07.872Z,9.27
2023-03-02T21:21:41.526Z,9.13
2023-03-02T21:24:10.482Z,8.77
2023-03-02T21:26:37.282Z,8.55
2023-03-02T21:29:04.693Z,8.27
2023-03-02T21:31:31.016Z,8.18
2023-03-02T21:33:57.346Z,17.52
2023-03-02T21:36:24.367Z,11.13
2023-03-02T21:38:51.909Z,11.20
2023-03-02T21:41:19.146Z,8.60
2023-03-02T21:43:45.484Z,7.22
2023-03-02T21:46:18.474Z,8.32
2023-03-02T21:48:45.630Z,8.18
2023-03-02T21:51:13.230Z,8.23
2023-03-02T21:56:06.205Z,8.82
2023-03-02T21:58:32.511Z,7.55
2023-03-02T22:00:58.809Z,10.75
2023-03-02T22:03:26.437Z,16.15
2023-03-02T22:05:52.719Z,7.50
2023-03-02T22:08:20.409Z,9.40
2023-03-02T22:10:49.123Z,7.70
2023-03-02T22:13:31.972Z,7.20
2023-03-02T22:16:04.464Z,8.80
2023-03-02T22:18:31.319Z,8.15
2023-03-02T22:20:57.793Z,8.05
2023-03-02T22:23:26.274Z,8.52
2023-03-02T22:25:55.725Z,7.82
2023-03-02T22:28:24.741Z,9.32
2023-03-02T22:30:52.748Z,8.65
2023-03-02T22:33:24.787Z,8.00
2023-03-02T22:36:02.936Z,7.88
2023-03-02T22:38:30.787Z,7.95
2023-03-02T22:40:57.259Z,7.55
2023-03-02T22:43:31.610Z,7.95
2023-03-02T22:46:19.614Z,8.10
2023-03-02T22:48:51.413Z,8.07
2023-03-02T22:51:20.245Z,7.70
2023-03-02T22:53:49.522Z,8.43
2023-03-02T22:56:26.669Z,8.55
2023-03-02T22:58:53.241Z,8.15
2023-03-02T23:01:38.111Z,8.15
2023-03-02T23:04:22.623Z,8.68
2023-03-02T23:06:52.030Z,9.88
2023-03-02T23:09:24.924Z,8.13
2023-03-02T23:11:57.647Z,8.55
2023-03-02T23:14:27.971Z,7.70
2023-03-02T23:16:58.985Z,8.63
2023-03-02T23:19:27.623Z,8.10
2023-03-02T23:21:54.945Z,9.02
2023-03-02T23:24:21.496Z,7.22
2023-03-02T23:26:52.112Z,8.45
2023-03-02T23:29:19.510Z,7.38
2023-03-02T23:31:46.184Z,7.20
2023-03-02T23:34:13.354Z,7.35
2023-03-02T23:36:40.279Z,7.20
2023-03-02T23:39:08.551Z,6.47
2023-03-02T23:41:36.636Z,7.80
2023-03-02T23:44:03.465Z,8.45
2023-03-02T23:46:29.829Z,8.73
2023-03-02T23:48:56.377Z,8.93
2023-03-02T23:51:26.241Z,9.73
2023-03-02T23:53:53.786Z,8.40
2023-03-02T23:56:20.617Z,8.23
2023-03-02T23:58:46.945Z,7.72
